Time;durP1;ratioP1;P1;durP2;ratioP2;P2;SDS_P1;SDS_P2;PMS_P1;PMS_P2;Temp;Humidity;BMP_temperature;BMP_pressure;BME280_temperature;BME280_humidity;BME280_pressure;Samples;Min_cycle;Max_cycle;Signal;HPM_P1;HPM_P2
2021/04/14 00:00:28;;;;;;;;;;;;;;;-2.51;100.00;96799.41;1021451;29;19918;-67
2021/04/14 00:00:58;;;;;;;;;;;;;;;-2.53;100.00;96793.63;1025940;28;20517;-69
2021/04/14 00:01:29;;;;;;;;;;;;;;;-2.55;100.00;96798.09;1027022;28;19953;-70
2021/04/14 00:01:59;;;;;;;;;;;;;;;-2.50;100.00;96798.44;1031411;28;19914;-70
2021/04/14 00:02:29;;;;;;;;;;;;;;;-2.47;100.00;96803.28;1034282;28;20004;-69
2021/04/14 00:03:00;;;;;;;;;;;;;;;-2.44;100.00;96793.50;1028562;28;19940;-70
2021/04/14 00:03:32;;;;;;;;;;;;;;;-2.42;100.00;96793.31;1027111;28;20406;-70
2021/04/14 00:04:04;;;;;;;;;;;;;;;-2.40;100.00;96789.66;1031340;28;20000;-69
2021/04/14 00:04:34;;;;;;;;;;;;;;;-2.43;100.00;96794.28;1024718;28;20162;-72
2021/04/14 00:05:06;;;;;;;;;;;;;;;-2.44;100.00;96796.06;1026876;28;19910;-70
2021/04/14 00:05:37;;;;;;;;;;;;;;;-2.46;100.00;96792.03;1023203;28;20387;-67
2021/04/14 00:06:08;;;;;;;;;;;;;;;-2.47;100.00;96790.44;1023437;28;19917;-68
2021/04/14 00:06:38;;;;;;;;;;;;;;;-2.48;100.00;96792.19;1028468;28;20383;-70
2021/04/14 00:07:08;;;;;;;;;;;;;;;-2.48;100.00;96791.38;1030929;28;19920;-71
2021/04/14 00:07:39;;;;;;;;;;;;;;;-2.46;100.00;96792.84;1035302;28;19994;-70
2021/04/14 00:08:10;;;;;;;;;;;;;;;-2.49;100.00;96792.34;1035442;28;19914;-71
2021/04/14 00:08:40;;;;;;;;;;;;;;;-2.48;100.00;96783.66;1028416;28;20098;-68
2021/04/14 00:09:11;;;;;;;;;;;;;;;-2.48;100.00;96789.63;1026365;28;19948;-69
2021/04/14 00:09:41;;;;;;;;;;;;;;;-2.47;100.00;96791.22;1031243;28;19915;-69
2021/04/14 00:10:12;;;;;;;;;;;;;;;-2.45;100.00;96788.50;1023418;29;20004;-69
2021/04/14 00:10:42;;;;;;;;;;;;;;;-2.46;100.00;96787.69;1024046;28;19918;-68
2021/04/14 00:11:16;;;;;;;;;;;;;;;-2.44;100.00;96790.13;1022338;29;19917;-69
2021/04/14 00:11:47;;;;;;;;;;;;;;;-2.46;100.00;96795.41;1023222;29;19934;-70
2021/04/14 00:12:17;;;;;;;;;;;;;;;-2.44;100.00;96796.06;1023886;28;19914;-69
2021/04/14 00:12:47;;;;;;;;;;;;;;;-2.45;100.00;96794.47;1020371;28;20173;-69
2021/04/14 00:13:19;;;;;;;;;;;;;;;-2.43;100.00;96796.88;1021630;29;20641;-69
2021/04/14 00:13:49;;;;;;;;;;;;;;;-2.42;100.00;96785.63;1023428;28;20214;-70
2021/04/14 00:14:19;;;;;;;;;;;;;;;-2.38;100.00;96789.50;1027474;28;20527;-69
2021/04/14 00:14:50;;;;;;;;;;;;;;;-2.37;100.00;96791.13;1029411;28;19910;-68
2021/04/14 00:15:22;;;;;;;;;;;;;;;-2.34;100.00;96790.00;1026050;28;19914;-69
2021/04/14 00:15:53;;;;;;;;;;;;;;;-2.32;100.00;96794.00;1027073;28;19914;-69
2021/04/14 00:16:24;;;;;;;;;;;;;;;-2.34;100.00;96790.81;1023688;28;19911;-69
2021/04/14 00:16:55;;;;;;;;;;;;;;;-2.35;100.00;96786.59;1021910;28;19945;-69
2021/04/14 00:17:25;;;;;;;;;;;;;;;-2.40;100.00;96792.22;1018000;28;19993;-69
2021/04/14 00:17:55;;;;;;;;;;;;;;;-2.43;100.00;96794.28;1015246;29;20377;-70
2021/04/14 00:18:26;;;;;;;;;;;;;;;-2.46;100.00;96784.31;1015456;29;19988;-70
2021/04/14 00:18:56;;;;;;;;;;;;;;;-2.47;100.00;96790.44;1022543;28;19992;-67
2021/04/14 00:19:26;;;;;;;;;;;;;;;-2.51;100.00;96786.56;1025021;28;20459;-70
2021/04/14 00:19:56;;;;;;;;;;;;;;;-2.48;100.00;96783.66;1026718;28;20435;-69
2021/04/14 00:20:27;;;;;;;;;;;;;;;-2.49;100.00;96787.19;1027571;28;19974;-69
2021/04/14 00:20:57;;;;;;;;;;;;;;;-2.51;100.00;96784.00;1023323;29;19934;-69
2021/04/14 00:21:28;;;;;;;;;;;;;;;-2.54;100.00;96785.09;1016680;29;20516;-69
2021/04/14 00:21:58;;;;;;;;;;;;;;;-2.55;100.00;96782.69;1022809;29;19910;-70
2021/04/14 00:22:28;;;;;;;;;;;;;;;-2.56;100.00;96786.22;1019414;29;19926;-70
2021/04/14 00:22:59;;;;;;;;;;;;;;;-2.62;100.00;96785.06;1026756;28;19918;-69
2021/04/14 00:23:29;;;;;;;;;;;;;;;-2.61;100.00;96778.97;1028296;28;20272;-69
2021/04/14 00:23:59;;;;;;;;;;;;;;;-2.65;100.00;96781.06;1035054;28;19916;-69
2021/04/14 00:24:31;;;;;;;;;;;;;;;-2.65;100.00;96778.47;1035262;28;19913;-69
2021/04/14 00:25:02;;;;;;;;;;;;;;;-2.64;100.00;96787.78;1035304;28;19987;-70
2021/04/14 00:25:33;;;;;;;;;;;;;;;-2.65;100.00;96783.63;1032470;28;19963;-67
2021/04/14 00:26:05;;;;;;;;;;;;;;;-2.66;100.00;96784.56;1031101;28;19914;-70
2021/04/14 00:26:36;;;;;;;;;;;;;;;-2.60;100.00;96785.72;1034723;28;19914;-70
2021/04/14 00:27:06;;;;;;;;;;;;;;;-2.63;100.00;96791.97;1023157;29;19911;-70
2021/04/14 00:27:37;;;;;;;;;;;;;;;-2.66;100.00;96781.19;1025511;28;19910;-69
2021/04/14 00:28:07;;;;;;;;;;;;;;;-2.69;100.00;96782.28;1025559;28;20094;-70
2021/04/14 00:28:37;;;;;;;;;;;;;;;-2.69;100.00;96782.28;1026944;28;20681;-70
2021/04/14 00:29:08;;;;;;;;;;;;;;;-2.72;100.00;96782.59;1027331;28;19969;-70
2021/04/14 00:29:38;;;;;;;;;;;;;;;-2.70;100.00;96790.16;1017080;29;19974;-69
2021/04/14 00:30:09;;;;;;;;;;;;;;;-2.69;100.00;96784.06;1017729;29;19915;-69
2021/04/14 00:30:39;;;;;;;;;;;;;;;-2.69;100.00;96787.44;1031431;28;19924;-69
2021/04/14 00:31:09;;;;;;;;;;;;;;;-2.66;100.00;96784.56;1027410;28;19917;-69
2021/04/14 00:31:40;;;;;;;;;;;;;;;-2.69;100.00;96782.28;1028542;28;19913;-69
2021/04/14 00:32:10;;;;;;;;;;;;;;;-2.68;100.00;96783.94;1030780;28;19910;-69
2021/04/14 00:32:40;;;;;;;;;;;;;;;-2.62;100.00;96783.31;1027406;28;19961;-68
2021/04/14 00:33:11;;;;;;;;;;;;;;;-2.63;100.00;96786.03;1026392;28;19944;-71
2021/04/14 00:33:41;;;;;;;;;;;;;;;-2.64;100.00;96792.94;1032456;28;20432;-70
2021/04/14 00:34:12;;;;;;;;;;;;;;;-2.64;100.00;96789.56;1030756;28;19948;-69
2021/04/14 00:34:43;;;;;;;;;;;;;;;-2.68;100.00;96789.06;1027419;28;20013;-70
2021/04/14 00:35:14;;;;;;;;;;;;;;;-2.71;100.00;96784.22;1030913;28;19909;-69
2021/04/14 00:35:45;;;;;;;;;;;;;;;-2.71;100.00;96784.22;1016623;29;19942;-70
2021/04/14 00:36:15;;;;;;;;;;;;;;;-2.72;100.00;96785.16;1022797;28;19910;-69
2021/04/14 00:36:45;;;;;;;;;;;;;;;-2.74;100.00;96789.66;1026962;28;19921;-70
2021/04/14 00:37:16;;;;;;;;;;;;;;;-2.72;100.00;96787.72;1031165;28;19910;-69
2021/04/14 00:37:47;;;;;;;;;;;;;;;-2.72;100.00;96781.78;1028889;28;19906;-70
2021/04/14 00:38:18;;;;;;;;;;;;;;;-2.73;100.00;96786.13;1025754;28;19914;-69
2021/04/14 00:38:48;;;;;;;;;;;;;;;-2.71;100.00;96784.22;1022583;28;20152;-71
2021/04/14 00:39:19;;;;;;;;;;;;;;;-2.69;100.00;96787.44;1019601;29;19914;-70
2021/04/14 00:39:50;;;;;;;;;;;;;;;-2.64;100.00;96787.78;1021938;28;20228;-70
2021/04/14 00:40:33;;;;;;;;;;;;;;;-2.64;100.00;96790.34;1025708;28;20499;-71
2021/04/14 00:41:07;;;;;;;;;;;;;;;-2.57;100.00;96784.63;1027406;28;20465;-69
2021/04/14 00:41:37;;;;;;;;;;;;;;;-2.55;100.00;96787.81;1031019;28;19936;-68
2021/04/14 00:42:08;;;;;;;;;;;;;;;-2.54;100.00;96789.44;1026654;28;19914;-68
2021/04/14 00:42:38;;;;;;;;;;;;;;;-2.52;100.00;96787.50;1030614;28;19917;-69
2021/04/14 00:43:11;;;;;;;;;;;;;;;-2.48;100.00;96788.81;1034711;28;19910;-70
2021/04/14 00:43:41;;;;;;;;;;;;;;;-2.50;100.00;96788.97;1030710;28;19952;-70
2021/04/14 00:44:12;;;;;;;;;;;;;;;-2.46;100.00;96789.47;1028217;28;19959;-70
2021/04/14 00:44:42;;;;;;;;;;;;;;;-2.44;100.00;96785.00;1030703;28;19956;-69
2021/04/14 00:45:13;;;;;;;;;;;;;;;-2.43;100.00;96781.44;1031063;28;19910;-70
2021/04/14 00:45:44;;;;;;;;;;;;;;;-2.41;100.00;96782.09;1035087;28;19928;-69
2021/04/14 00:46:14;;;;;;;;;;;;;;;-2.44;100.00;96782.41;1028885;28;20743;-68
2021/04/14 00:46:44;;;;;;;;;;;;;;;-2.43;100.00;96781.44;1029968;28;20008;-69
2021/04/14 00:47:17;;;;;;;;;;;;;;;-2.39;100.00;96785.31;1031127;28;19917;-68
2021/04/14 00:47:47;;;;;;;;;;;;;;;-2.39;100.00;96790.44;1027634;28;19921;-70
2021/04/14 00:48:17;;;;;;;;;;;;;;;-2.37;100.00;96781.63;1029429;28;20107;-71
2021/04/14 00:48:48;;;;;;;;;;;;;;;-2.35;100.00;96783.22;1029285;28;19914;-69
2021/04/14 00:49:18;;;;;;;;;;;;;;;-2.34;100.00;96782.28;1023130;29;19973;-69
2021/04/14 00:49:51;;;;;;;;;;;;;;;-2.33;100.00;96784.69;1023333;28;19941;-69
2021/04/14 00:50:23;;;;;;;;;;;;;;;-2.30;100.00;96786.97;1021415;28;20406;-68
2021/04/14 00:50:53;;;;;;;;;;;;;;;-2.27;100.00;96781.50;1022620;28;20001;-69
2021/04/14 00:51:25;;;;;;;;;;;;;;;-2.26;100.00;96785.69;1030631;28;19922;-69
2021/04/14 00:51:55;;;;;;;;;;;;;;;-2.24;100.00;96788.91;1032142;28;20636;-68
2021/04/14 00:52:26;;;;;;;;;;;;;;;-2.25;100.00;96789.84;1033115;28;20031;-68
2021/04/14 00:52:56;;;;;;;;;;;;;;;-2.25;100.00;96787.28;1029193;28;20013;-71
2021/04/14 00:53:26;;;;;;;;;;;;;;;-2.23;100.00;96787.13;1026671;28;19960;-68
2021/04/14 00:53:57;;;;;;;;;;;;;;;-2.22;100.00;96778.47;1023177;29;19921;-69
2021/04/14 00:54:27;;;;;;;;;;;;;;;-2.22;100.00;96783.59;1025317;28;19917;-69
2021/04/14 00:54:57;;;;;;;;;;;;;;;-2.20;100.00;96784.25;1025923;28;19925;-69
2021/04/14 00:55:28;;;;;;;;;;;;;;;-2.18;100.00;96780.56;1022320;28;20838;-68
2021/04/14 00:55:59;;;;;;;;;;;;;;;-2.18;100.00;96783.16;1019192;29;20013;-70
2021/04/14 00:56:29;;;;;;;;;;;;;;;-2.18;100.00;96780.56;1017813;28;20871;-67
2021/04/14 00:56:59;;;;;;;;;;;;;;;-2.16;100.00;96783.78;1022127;28;19919;-71
2021/04/14 00:57:30;;;;;;;;;;;;;;;-2.14;100.00;96776.72;1030164;28;19964;-68
2021/04/14 00:58:00;;;;;;;;;;;;;;;-2.11;100.00;96779.94;1031304;28;19960;-68
2021/04/14 00:58:31;;;;;;;;;;;;;;;-2.09;100.00;96772.88;1026093;28;19922;-69
2021/04/14 00:59:01;;;;;;;;;;;;;;;-2.08;100.00;96779.63;1034641;28;20519;-70
2021/04/14 00:59:32;;;;;;;;;;;;;;;-2.08;100.00;96779.63;1034623;28;19976;-69
2021/04/14 01:00:05;;;;;;;;;;;;;;;-2.06;100.00;96778.50;1035145;28;19913;-70
2021/04/14 01:00:39;;;;;;;;;;;;;;;-2.04;100.00;96770.66;1029485;28;19952;-68
2021/04/14 01:01:09;;;;;;;;;;;;;;;-2.03;100.00;96777.38;1024862;28;19902;-70
2021/04/14 01:01:40;;;;;;;;;;;;;;;-2.00;100.00;96777.06;1023848;28;19911;-69
2021/04/14 01:02:10;;;;;;;;;;;;;;;-1.98;100.00;96775.13;1027912;28;19972;-69
2021/04/14 01:02:40;;;;;;;;;;;;;;;-1.95;100.00;96772.25;1029951;28;19910;-68
2021/04/14 01:03:15;;;;;;;;;;;;;;;-1.94;100.00;96771.31;1032615;28;19970;-69
2021/04/14 01:03:45;;;;;;;;;;;;;;;-1.92;100.00;96774.50;1030448;28;19906;-69
2021/04/14 01:04:15;;;;;;;;;;;;;;;-1.92;100.00;96769.38;1031030;28;19913;-69
2021/04/14 01:04:46;;;;;;;;;;;;;;;-1.91;100.00;96765.84;1025968;28;19906;-69
2021/04/14 01:05:16;;;;;;;;;;;;;;;-1.91;100.00;96773.56;1025134;28;20292;-69
2021/04/14 01:05:47;;;;;;;;;;;;;;;-1.93;100.00;96767.75;1026645;28;19921;-70
2021/04/14 01:06:20;;;;;;;;;;;;;;;-1.91;100.00;96765.84;1027134;28;19918;-69
2021/04/14 01:06:50;;;;;;;;;;;;;;;-1.87;100.00;96767.13;1027214;28;19961;-69
2021/04/14 01:07:21;;;;;;;;;;;;;;;-1.86;100.00;96766.16;1024697;28;19916;-69
2021/04/14 01:07:51;;;;;;;;;;;;;;;-1.83;100.00;96768.41;1026589;28;19910;-69
2021/04/14 01:08:22;;;;;;;;;;;;;;;-1.80;100.00;96769.88;1027319;28;19936;-69
2021/04/14 01:08:52;;;;;;;;;;;;;;;-1.81;100.00;96776.78;1026985;28;20339;-68
2021/04/14 01:09:23;;;;;;;;;;;;;;;-1.80;100.00;96772.44;1020225;28;19921;-67
2021/04/14 01:09:53;;;;;;;;;;;;;;;-1.83;100.00;96771.00;1026787;28;19940;-68
2021/04/14 01:10:24;;;;;;;;;;;;;;;-1.85;100.00;96775.47;1023426;29;20407;-69
2021/04/14 01:10:54;;;;;;;;;;;;;;;-1.81;100.00;96761.34;1025379;28;20390;-69
2021/04/14 01:11:25;;;;;;;;;;;;;;;-1.82;100.00;96769.22;1026101;28;19942;-71
2021/04/14 01:11:56;;;;;;;;;;;;;;;-1.83;100.00;96763.28;1030676;28;19968;-68
2021/04/14 01:12:26;;;;;;;;;;;;;;;-1.88;100.00;96762.13;1031272;28;19914;-69
2021/04/14 01:12:56;;;;;;;;;;;;;;;-1.91;100.00;96766.66;1034327;28;19921;-66
2021/04/14 01:13:27;;;;;;;;;;;;;;;-1.94;100.00;96763.59;1029104;28;19914;-69
2021/04/14 01:13:57;;;;;;;;;;;;;;;-1.94;100.00;96761.81;1026605;28;20017;-69
2021/04/14 01:14:28;;;;;;;;;;;;;;;-1.96;100.00;96760.38;1031317;28;19917;-68
2021/04/14 01:14:58;;;;;;;;;;;;;;;-1.94;100.00;96758.44;1027185;28;19957;-71
2021/04/14 01:15:33;;;;;;;;;;;;;;;-1.97;100.00;96761.34;1028424;28;19917;-67
2021/04/14 01:16:03;;;;;;;;;;;;;;;-1.98;100.00;96763.09;1030540;28;20290;-69
2021/04/14 01:16:34;;;;;;;;;;;;;;;-1.98;100.00;96762.28;1031419;28;19988;-69
2021/04/14 01:17:04;;;;;;;;;;;;;;;-2.00;100.00;96762.44;1030927;28;19909;-70
2021/04/14 01:17:35;;;;;;;;;;;;;;;-2.02;100.00;96754.06;1028485;28;19965;-67
2021/04/14 01:18:06;;;;;;;;;;;;;;;-2.03;100.00;96759.38;1034433;28;19913;-70
2021/04/14 01:18:36;;;;;;;;;;;;;;;-2.06;100.00;96754.56;1027301;28;19920;-69
2021/04/14 01:19:07;;;;;;;;;;;;;;;-2.11;100.00;96760.19;1027171;28;19910;-69
2021/04/14 01:19:37;;;;;;;;;;;;;;;-2.11;100.00;96760.19;1017028;29;20442;-70
2021/04/14 01:20:07;;;;;;;;;;;;;;;-2.10;100.00;96755.84;1014553;29;19919;-70
2021/04/14 01:20:38;;;;;;;;;;;;;;;-2.14;100.00;96761.28;1019271;29;20002;-68
2021/04/14 01:21:09;;;;;;;;;;;;;;;-2.18;100.00;96754.88;1019226;29;19933;-70
2021/04/14 01:21:40;;;;;;;;;;;;;;;-2.19;100.00;96755.81;1024739;28;20012;-69
2021/04/14 01:22:10;;;;;;;;;;;;;;;-2.20;100.00;96753.41;1023162;28;19942;-70
2021/04/14 01:22:41;;;;;;;;;;;;;;;-2.23;100.00;96758.88;1028556;28;20095;-70
2021/04/14 01:23:11;;;;;;;;;;;;;;;-2.25;100.00;96759.00;1023460;28;20123;-69
2021/04/14 01:23:42;;;;;;;;;;;;;;;-2.25;100.00;96753.88;1013947;29;19907;-69
2021/04/14 01:24:13;;;;;;;;;;;;;;;-2.25;100.00;96760.78;1019694;29;19906;-70
2021/04/14 01:24:43;;;;;;;;;;;;;;;-2.23;100.00;96762.22;1021367;28;20371;-68
2021/04/14 01:25:24;;;;;;;;;;;;;;;-2.24;100.00;96760.63;1028877;28;19911;-68
2021/04/14 01:25:54;;;;;;;;;;;;;;;-2.22;100.00;96763.84;1026771;28;20327;-69
2021/04/14 01:26:25;;;;;;;;;;;;;;;-2.21;100.00;96762.09;1024898;28;19974;-69
2021/04/14 01:26:55;;;;;;;;;;;;;;;-2.24;100.00;96765.78;1025111;29;20430;-69
2021/04/14 01:27:25;;;;;;;;;;;;;;;-2.21;100.00;96755.19;1025000;28;19984;-69
2021/04/14 01:27:56;;;;;;;;;;;;;;;-2.22;100.00;96761.25;1029308;28;20378;-70
2021/04/14 01:28:30;;;;;;;;;;;;;;;-2.23;100.00;96757.09;1029325;28;19910;-69
2021/04/14 01:29:00;;;;;;;;;;;;;;;-2.23;100.00;96762.22;1024084;29;19909;-72
2021/04/14 01:29:31;;;;;;;;;;;;;;;-2.21;100.00;96765.47;1023922;29;20311;-70
2021/04/14 01:30:07;;;;;;;;;;;;;;;-2.23;100.00;96764.81;1023023;28;20380;-68
2021/04/14 01:30:37;;;;;;;;;;;;;;;-2.24;100.00;96765.78;1027271;28;19913;-70
2021/04/14 01:31:12;;;;;;;;;;;;;;;-2.30;100.00;96766.41;1023777;29;19913;-69
2021/04/14 01:31:42;;;;;;;;;;;;;;;-2.31;100.00;96762.22;1023770;29;19917;-69
2021/04/14 01:32:12;;;;;;;;;;;;;;;-2.35;100.00;96763.47;1022191;28;20388;-69
2021/04/14 01:32:42;;;;;;;;;;;;;;;-2.35;100.00;96766.03;1032416;28;19917;-69
2021/04/14 01:33:13;;;;;;;;;;;;;;;-2.35;100.00;96762.66;1035459;28;19917;-70
2021/04/14 01:33:43;;;;;;;;;;;;;;;-2.40;100.00;96760.59;1031436;28;19928;-69
2021/04/14 01:34:15;;;;;;;;;;;;;;;-2.42;100.00;96759.91;1021742;29;19955;-69
2021/04/14 01:34:45;;;;;;;;;;;;;;;-2.44;100.00;96759.28;1027423;28;19917;-69
2021/04/14 01:35:15;;;;;;;;;;;;;;;-2.42;100.00;96757.34;1032028;28;19917;-69
2021/04/14 01:35:46;;;;;;;;;;;;;;;-2.45;100.00;96765.38;1036142;28;19905;-70
2021/04/14 01:36:16;;;;;;;;;;;;;;;-2.48;100.00;96757.97;1029226;28;19918;-68
2021/04/14 01:36:47;;;;;;;;;;;;;;;-2.51;100.00;96763.44;1027153;28;19902;-70
2021/04/14 01:37:17;;;;;;;;;;;;;;;-2.52;100.00;96756.69;1027773;28;20009;-69
2021/04/14 01:37:50;;;;;;;;;;;;;;;-2.57;100.00;96757.16;1035636;28;19909;-71
2021/04/14 01:38:20;;;;;;;;;;;;;;;-2.55;100.00;96762.13;1033971;28;20004;-72
2021/04/14 01:38:51;;;;;;;;;;;;;;;-2.58;100.00;96765.00;1026377;28;20038;-70
2021/04/14 01:39:21;;;;;;;;;;;;;;;-2.60;100.00;96757.47;1027445;28;19906;-70
2021/04/14 01:39:51;;;;;;;;;;;;;;;-2.64;100.00;96761.31;1024023;29;19981;-70
2021/04/14 01:40:22;;;;;;;;;;;;;;;-2.66;100.00;96765.78;1025790;28;20407;-69
2021/04/14 01:40:52;;;;;;;;;;;;;;;-2.72;100.00;96759.47;1034477;28;19913;-69
2021/04/14 01:41:23;;;;;;;;;;;;;;;-2.75;100.00;96759.81;1035978;28;19914;-69
2021/04/14 01:41:53;;;;;;;;;;;;;;;-2.73;100.00;96765.59;1023698;28;19921;-71
2021/04/14 01:42:23;;;;;;;;;;;;;;;-2.76;100.00;96759.94;1014823;29;19919;-71
2021/04/14 01:42:54;;;;;;;;;;;;;;;-3.00;100.00;96728.06;1021124;29;19933;-68
2021/04/14 01:43:24;;;;;;;;;;;;;;;-2.78;100.00;96759.28;1023275;28;19969;-69
2021/04/14 01:43:54;;;;;;;;;;;;;;;-2.78;100.00;96762.69;1027649;28;19917;-70
2021/04/14 01:44:25;;;;;;;;;;;;;;;-2.81;100.00;96762.19;1029795;28;19913;-68
2021/04/14 01:44:55;;;;;;;;;;;;;;;-2.80;100.00;96764.59;1018307;29;19914;-70
2021/04/14 01:45:27;;;;;;;;;;;;;;;-2.82;100.00;96760.56;1023732;28;20704;-69
2021/04/14 01:45:57;;;;;;;;;;;;;;;-2.81;100.00;96764.75;1027830;28;19923;-68
2021/04/14 01:46:27;;;;;;;;;;;;;;;-2.85;100.00;96761.66;1026220;28;20161;-69
2021/04/14 01:46:58;;;;;;;;;;;;;;;-2.87;100.00;96758.47;1034724;28;20246;-70
2021/04/14 01:47:28;;;;;;;;;;;;;;;-2.81;100.00;96768.13;1031696;28;19924;-70
2021/04/14 01:47:58;;;;;;;;;;;;;;;-2.85;100.00;96759.09;1031951;28;19944;-69
2021/04/14 01:48:29;;;;;;;;;;;;;;;-2.88;100.00;96767.13;1030872;28;19973;-69
2021/04/14 01:48:59;;;;;;;;;;;;;;;-2.89;100.00;96766.31;1021635;28;20420;-69
2021/04/14 01:49:29;;;;;;;;;;;;;;;-2.88;100.00;96765.38;1023527;29;20395;-68
2021/04/14 01:50:00;;;;;;;;;;;;;;;-2.86;100.00;96765.19;1023922;29;19973;-69
2021/04/14 01:50:30;;;;;;;;;;;;;;;-2.87;100.00;96755.91;1019588;29;19915;-68
2021/04/14 01:51:00;;;;;;;;;;;;;;;-2.84;100.00;96760.72;1029360;28;19921;-70
2021/04/14 01:51:31;;;;;;;;;;;;;;;-2.87;100.00;96758.47;1035614;28;19953;-71
2021/04/14 01:52:01;;;;;;;;;;;;;;;-2.89;100.00;96760.38;1031818;28;20272;-70
2021/04/14 01:52:31;;;;;;;;;;;;;;;-2.88;100.00;96756.88;1032035;28;19913;-70
2021/04/14 01:53:02;;;;;;;;;;;;;;;-2.89;100.00;96766.31;1029267;28;19938;-69
2021/04/14 01:53:32;;;;;;;;;;;;;;;-2.90;100.00;96763.91;1030451;28;19917;-70
2021/04/14 01:54:03;;;;;;;;;;;;;;;-2.93;100.00;96764.22;1031722;28;20401;-70
2021/04/14 01:54:33;;;;;;;;;;;;;;;-2.95;100.00;96750.69;1032021;28;19918;-70
2021/04/14 01:55:04;;;;;;;;;;;;;;;-2.95;100.00;96755.84;1033965;28;20453;-71
2021/04/14 01:55:34;;;;;;;;;;;;;;;-2.96;100.00;96756.81;1030273;28;19913;-71
2021/04/14 01:56:05;;;;;;;;;;;;;;;-2.96;100.00;96761.94;1027306;28;20399;-70
2021/04/14 01:56:35;;;;;;;;;;;;;;;-2.91;100.00;96757.16;1027591;28;19994;-70
2021/04/14 01:57:06;;;;;;;;;;;;;;;-2.93;100.00;96759.88;1022599;28;19914;-69
2021/04/14 01:57:36;;;;;;;;;;;;;;;-2.93;100.00;96754.72;1021932;28;19999;-69
2021/04/14 01:58:07;;;;;;;;;;;;;;;-2.95;100.00;96756.66;1023491;29;19918;-70
2021/04/14 01:58:37;;;;;;;;;;;;;;;-2.97;100.00;96757.78;1027861;28;20009;-71
2021/04/14 01:59:08;;;;;;;;;;;;;;;-2.95;100.00;96755.84;1026773;28;20364;-70
2021/04/14 01:59:38;;;;;;;;;;;;;;;-2.87;100.00;96759.25;1033996;28;20004;-70
2021/04/14 02:00:20;;;;;;;;;;;;;;;-2.82;100.00;96751.09;1035493;28;19967;-70
2021/04/14 02:00:54;;;;;;;;;;;;;;;-2.82;100.00;96753.66;1031955;28;19932;-70
2021/04/14 02:01:25;;;;;;;;;;;;;;;-2.82;100.00;96755.44;1017003;29;19950;-69
2021/04/14 02:01:55;;;;;;;;;;;;;;;-2.79;100.00;96750.78;1019368;29;19915;-70
2021/04/14 02:02:25;;;;;;;;;;;;;;;-2.69;100.00;96756.59;1015890;29;19977;-70
2021/04/14 02:02:55;;;;;;;;;;;;;;;-2.72;100.00;96750.97;1019343;28;19919;-69
2021/04/14 02:03:29;;;;;;;;;;;;;;;-2.72;100.00;96753.53;1025398;28;19917;-70
2021/04/14 02:03:59;;;;;;;;;;;;;;;-2.71;100.00;96758.53;1027284;28;19914;-71
2021/04/14 02:04:29;;;;;;;;;;;;;;;-2.67;100.00;96749.56;1027516;28;19961;-70
2021/04/14 02:05:00;;;;;;;;;;;;;;;-2.67;100.00;96744.44;1024103;28;19918;-70
2021/04/14 02:05:30;;;;;;;;;;;;;;;-2.67;100.00;96757.28;1029339;28;20000;-69
2021/04/14 02:06:01;;;;;;;;;;;;;;;-2.65;100.00;96757.94;1027084;28;19969;-70
2021/04/14 02:06:31;;;;;;;;;;;;;;;-2.64;100.00;96748.47;1027776;28;20016;-70
2021/04/14 02:07:01;;;;;;;;;;;;;;;-2.67;100.00;96748.75;1027866;28;20334;-71
2021/04/14 02:07:32;;;;;;;;;;;;;;;-2.68;100.00;96753.09;1021743;29;20491;-72
2021/04/14 02:08:02;;;;;;;;;;;;;;;-2.66;100.00;96748.59;1026585;28;19918;-71
2021/04/14 02:08:32;;;;;;;;;;;;;;;-2.67;100.00;96748.75;1031798;28;20197;-71
2021/04/14 02:09:03;;;;;;;;;;;;;;;-2.65;100.00;96757.94;1031519;28;20062;-70
2021/04/14 02:09:33;;;;;;;;;;;;;;;-2.62;100.00;96751.66;1034610;28;20059;-68
2021/04/14 02:10:05;;;;;;;;;;;;;;;-2.61;100.00;96748.16;1033596;28;19913;-69
2021/04/14 02:10:35;;;;;;;;;;;;;;;-2.57;100.00;96751.22;1035778;28;20394;-69
2021/04/14 02:11:06;;;;;;;;;;;;;;;-2.55;100.00;96749.28;1039095;28;19948;-69
2021/04/14 02:11:36;;;;;;;;;;;;;;;-2.47;100.00;96750.13;1025724;28;19941;-70
2021/04/14 02:12:06;;;;;;;;;;;;;;;-2.49;100.00;96752.03;1026528;28;19921;-69
2021/04/14 02:12:37;;;;;;;;;;;;;;;-2.48;100.00;96752.81;1023674;29;19910;-69
2021/04/14 02:13:14;;;;;;;;;;;;;;;-2.46;100.00;96751.72;1022940;28;19926;-69
2021/04/14 02:13:45;;;;;;;;;;;;;;;-2.48;100.00;96747.69;1029400;28;20342;-68
2021/04/14 02:14:15;;;;;;;;;;;;;;;-2.49;100.00;96746.88;1027123;28;19917;-69
2021/04/14 02:14:45;;;;;;;;;;;;;;;-2.50;100.00;96752.19;1031812;28;19917;-70
2021/04/14 02:15:17;;;;;;;;;;;;;;;-2.51;100.00;96753.16;1027856;28;20010;-70
2021/04/14 02:15:48;;;;;;;;;;;;;;;-2.53;100.00;96747.38;1025836;28;20331;-70
2021/04/14 02:16:20;;;;;;;;;;;;;;;-2.56;100.00;96747.69;1018295;29;20001;-69
2021/04/14 02:16:51;;;;;;;;;;;;;;;-2.57;100.00;96752.00;1024366;28;19922;-69
2021/04/14 02:17:21;;;;;;;;;;;;;;;-2.56;100.00;96750.25;1028249;28;19920;-70
2021/04/14 02:17:52;;;;;;;;;;;;;;;-2.58;100.00;96747.84;1030655;28;19913;-70
2021/04/14 02:18:22;;;;;;;;;;;;;;;-2.56;100.00;96748.47;1030067;28;20565;-71
2021/04/14 02:18:52;;;;;;;;;;;;;;;-2.56;100.00;96745.09;1023754;29;19981;-70
2021/04/14 02:19:22;;;;;;;;;;;;;;;-2.58;100.00;96750.41;1024201;29;20339;-69
2021/04/14 02:19:53;;;;;;;;;;;;;;;-2.54;100.00;96745.78;1022551;28;20494;-70
2021/04/14 02:20:23;;;;;;;;;;;;;;;-2.54;100.00;96748.34;1017525;29;19919;-70
2021/04/14 02:20:54;;;;;;;;;;;;;;;-2.55;100.00;96747.50;1023501;29;19924;-69
2021/04/14 02:21:24;;;;;;;;;;;;;;;-2.56;100.00;96745.91;1031527;28;20426;-68
2021/04/14 02:21:55;;;;;;;;;;;;;;;-2.55;100.00;96744.94;1027324;28;19941;-69
2021/04/14 02:22:25;;;;;;;;;;;;;;;-2.53;100.00;96744.81;1028935;28;20276;-70
2021/04/14 02:22:55;;;;;;;;;;;;;;;-2.51;100.00;96745.47;1026958;28;20124;-68
2021/04/14 02:23:26;;;;;;;;;;;;;;;-2.50;100.00;96744.50;1027780;28;20407;-70
2021/04/14 02:23:57;;;;;;;;;;;;;;;-2.50;100.00;96750.44;1029836;28;19914;-69
2021/04/14 02:24:27;;;;;;;;;;;;;;;-2.45;100.00;96748.22;1026263;28;20526;-68
2021/04/14 02:24:57;;;;;;;;;;;;;;;-2.47;100.00;96744.19;1031231;28;19917;-69
2021/04/14 02:25:28;;;;;;;;;;;;;;;-2.47;100.00;96744.97;1031916;28;19920;-70
2021/04/14 02:26:03;;;;;;;;;;;;;;;-2.48;100.00;96747.69;1029457;28;19917;-69
2021/04/14 02:26:33;;;;;;;;;;;;;;;-2.48;100.00;96747.69;1030557;28;19913;-69
2021/04/14 02:27:03;;;;;;;;;;;;;;;-2.42;100.00;96744.50;1026843;28;19918;-69
2021/04/14 02:27:34;;;;;;;;;;;;;;;-2.45;100.00;96748.22;1025768;28;19984;-70
2021/04/14 02:28:04;;;;;;;;;;;;;;;-2.47;100.00;96744.97;1020828;28;19914;-68
2021/04/14 02:28:34;;;;;;;;;;;;;;;-2.50;100.00;96747.06;1031223;28;19918;-69
2021/04/14 02:29:05;;;;;;;;;;;;;;;-2.51;100.00;96745.47;1031203;28;19957;-69
2021/04/14 02:29:35;;;;;;;;;;;;;;;-2.55;100.00;96746.72;1031159;28;19917;-69
2021/04/14 02:30:09;;;;;;;;;;;;;;;-2.55;100.00;96741.56;1024963;28;20666;-69
2021/04/14 02:30:39;;;;;;;;;;;;;;;-2.54;100.00;96740.63;1027377;28;19921;-69
2021/04/14 02:31:10;;;;;;;;;;;;;;;-2.57;100.00;96738.38;1027658;28;19913;-69
2021/04/14 02:31:40;;;;;;;;;;;;;;;-2.57;100.00;96744.31;1022304;28;19914;-69
2021/04/14 02:32:11;;;;;;;;;;;;;;;-2.60;100.00;96744.63;1026494;28;19918;-70
2021/04/14 02:32:41;;;;;;;;;;;;;;;-2.62;100.00;96742.22;1027739;28;20319;-69
2021/04/14 02:33:11;;;;;;;;;;;;;;;-2.61;100.00;96743.81;1030989;28;20739;-69
2021/04/14 02:33:42;;;;;;;;;;;;;;;-2.62;100.00;96738.81;1038099;28;19928;-67
2021/04/14 02:34:12;;;;;;;;;;;;;;;-2.65;100.00;96737.38;1033872;28;20425;-68
2021/04/14 02:34:43;;;;;;;;;;;;;;;-2.64;100.00;96738.97;1035576;28;19963;-69
2021/04/14 02:35:13;;;;;;;;;;;;;;;-2.65;100.00;96736.56;1031462;28;19968;-70
2021/04/14 02:35:43;;;;;;;;;;;;;;;-2.67;100.00;96741.84;1031655;28;19916;-69
2021/04/14 02:36:14;;;;;;;;;;;;;;;-2.71;100.00;96737.19;1037233;28;19921;-68
2021/04/14 02:36:44;;;;;;;;;;;;;;;-2.59;100.00;96742.84;1038713;28;19917;-68
2021/04/14 02:37:14;;;;;;;;;;;;;;;-2.65;100.00;96746.81;1035521;28;19917;-70
2021/04/14 02:37:45;;;;;;;;;;;;;;;-2.71;100.00;96738.00;1031946;28;19910;-69
2021/04/14 02:38:15;;;;;;;;;;;;;;;-2.74;100.00;96743.44;1026580;28;19910;-68